createdAt,value
2022-09-15T00:00:01.067Z,2.83
2022-09-15T00:02:27.870Z,2.90
2022-09-15T00:04:54.567Z,2.92
2022-09-15T00:07:21.209Z,3.00
2022-09-15T00:09:47.834Z,3.15
2022-09-15T00:12:14.510Z,3.03
2022-09-15T00:14:41.174Z,3.15
2022-09-15T00:17:07.897Z,3.50
2022-09-15T00:19:34.666Z,2.92
2022-09-15T00:22:01.568Z,3.10
2022-09-15T00:24:28.208Z,3.17
2022-09-15T00:26:55.083Z,3.35
2022-09-15T00:29:21.709Z,3.10
2022-09-15T00:31:48.366Z,3.63
2022-09-15T00:34:16.143Z,3.33
2022-09-15T00:36:42.779Z,3.40
2022-09-15T00:39:09.468Z,3.42
2022-09-15T00:41:38.348Z,3.05
2022-09-15T00:44:32.986Z,3.33
2022-09-15T00:47:18.130Z,3.38
2022-09-15T00:49:48.714Z,3.30
2022-09-15T00:52:25.279Z,3.50
2022-09-15T00:54:58.598Z,3.40
2022-09-15T00:57:33.927Z,3.85
2022-09-15T01:00:03.708Z,3.30
2022-09-15T01:02:33.730Z,3.75
2022-09-15T01:05:03.075Z,3.08
2022-09-15T01:07:37.774Z,3.15
2022-09-15T01:10:29.538Z,3.33
2022-09-15T01:13:01.092Z,3.45
2022-09-15T01:15:52.134Z,2.90
2022-09-15T01:18:28.731Z,3.20
2022-09-15T01:21:21.949Z,3.45
2022-09-15T01:24:05.071Z,3.20
2022-09-15T01:26:34.771Z,3.15
2022-09-15T01:29:29.098Z,3.58
2022-09-15T01:32:22.468Z,3.33
2022-09-15T01:35:15.253Z,3.30
2022-09-15T01:37:50.044Z,3.47
2022-09-15T01:40:18.540Z,3.25
2022-09-15T01:42:47.338Z,4.03
2022-09-15T01:45:20.391Z,3.83
2022-09-15T01:47:49.716Z,3.70
2022-09-15T01:50:20.740Z,4.10
2022-09-15T01:52:52.210Z,4.03
2022-09-15T01:55:30.215Z,3.78
2022-09-15T01:57:58.527Z,4.22
2022-09-15T02:00:25.143Z,4.85
2022-09-15T02:03:04.249Z,4.57
2022-09-15T02:05:40.787Z,5.07
2022-09-15T02:08:13.648Z,4.80
2022-09-15T02:11:00.571Z,5.13
2022-09-15T02:13:39.225Z,4.97
2022-09-15T02:16:19.996Z,4.80
2022-09-15T02:19:17.094Z,4.78
2022-09-15T02:21:57.163Z,4.70
2022-09-15T02:24:43.919Z,4.40
2022-09-15T02:27:15.973Z,4.28
2022-09-15T02:29:47.487Z,4.43
2022-09-15T02:32:17.712Z,4.75
2022-09-15T02:34:47.757Z,4.22
2022-09-15T02:37:15.036Z,4.40
2022-09-15T02:39:47.879Z,4.03
2022-09-15T02:42:26.588Z,3.60
2022-09-15T02:44:53.336Z,4.38
2022-09-15T02:47:20.323Z,4.10
2022-09-15T02:49:46.954Z,4.20
2022-09-15T02:52:13.964Z,4.13
2022-09-15T02:54:40.780Z,3.60
2022-09-15T02:57:07.551Z,3.78
2022-09-15T02:59:52.970Z,3.97
2022-09-15T03:02:20.468Z,4.10
2022-09-15T03:04:47.895Z,4.20
2022-09-15T03:07:15.053Z,4.22
2022-09-15T03:09:41.918Z,3.83
2022-09-15T03:12:09.246Z,3.63
2022-09-15T03:14:36.153Z,3.95
2022-09-15T03:17:03.327Z,4.03
2022-09-15T03:19:30.914Z,4.20
2022-09-15T03:21:57.587Z,3.90
2022-09-15T03:24:24.227Z,3.40
2022-09-15T03:26:50.896Z,3.75
2022-09-15T03:29:17.542Z,4.43
2022-09-15T03:31:44.196Z,4.35
2022-09-15T03:34:10.946Z,4.07
2022-09-15T03:36:38.129Z,4.07
2022-09-15T03:39:04.829Z,4.03
2022-09-15T03:41:31.504Z,3.45
2022-09-15T03:43:58.207Z,3.50
2022-09-15T03:46:24.881Z,2.97
2022-09-15T03:48:51.523Z,3.42
2022-09-15T03:51:18.147Z,2.83
2022-09-15T03:53:44.869Z,2.63
2022-09-15T03:56:23.470Z,3.00
2022-09-15T03:58:50.956Z,2.50
2022-09-15T04:01:18.962Z,2.63
2022-09-15T04:03:50.862Z,2.42
2022-09-15T04:06:19.762Z,2.67
2022-09-15T04:08:47.198Z,2.85
2022-09-15T04:11:14.666Z,2.20
2022-09-15T04:13:42.817Z,2.35
2022-09-15T04:16:15.837Z,2.78
2022-09-15T04:18:42.847Z,3.17
2022-09-15T04:21:13.977Z,2.28
2022-09-15T04:23:41.783Z,2.60
2022-09-15T04:26:22.929Z,2.00
2022-09-15T04:28:49.939Z,2.85
2022-09-15T04:31:17.472Z,1.98
2022-09-15T04:33:45.366Z,2.58
2022-09-15T04:36:21.590Z,2.40
2022-09-15T04:38:48.883Z,1.88
2022-09-15T04:41:16.147Z,1.90
2022-09-15T04:43:45.899Z,2.03
2022-09-15T04:46:14.143Z,1.92
2022-09-15T04:48:41.326Z,1.77
2022-09-15T04:51:12.078Z,1.95
2022-09-15T04:53:39.235Z,2.25
2022-09-15T04:56:17.910Z,2.20
2022-09-15T04:58:47.585Z,2.28
2022-09-15T05:01:17.067Z,2.33
2022-09-15T05:03:44.195Z,2.38
2022-09-15T05:06:12.955Z,2.63
2022-09-15T05:08:40.064Z,2.10
2022-09-15T05:11:12.042Z,3.17
2022-09-15T05:13:40.132Z,2.90
2022-09-15T05:16:08.895Z,2.53
2022-09-15T05:18:35.861Z,2.85
2022-09-15T05:21:03.353Z,2.88
2022-09-15T05:23:30.283Z,2.78
2022-09-15T05:25:58.507Z,2.90
2022-09-15T05:28:25.497Z,2.80
2022-09-15T05:30:56.165Z,3.22
2022-09-15T05:33:23.698Z,3.40
2022-09-15T05:36:03.111Z,3.00
2022-09-15T05:38:31.514Z,3.63
2022-09-15T05:41:10.798Z,3.10
2022-09-15T05:43:38.631Z,3.50
2022-09-15T05:46:06.717Z,2.75
2022-09-15T05:48:34.168Z,3.20
2022-09-15T05:51:01.101Z,3.22
2022-09-15T05:53:28.341Z,3.03
2022-09-15T05:56:00.064Z,2.42
2022-09-15T05:58:27.548Z,3.03
2022-09-15T06:00:54.847Z,2.92
2022-09-15T06:03:24.502Z,2.53
2022-09-15T06:06:02.301Z,3.30
2022-09-15T06:08:37.648Z,2.30
2022-09-15T06:11:12.527Z,2.53
2022-09-15T06:13:40.034Z,2.55
2022-09-15T06:16:09.489Z,2.92
2022-09-15T06:18:37.689Z,2.13
2022-09-15T06:21:13.454Z,2.10
2022-09-15T06:23:40.691Z,2.13
2022-09-15T06:26:09.270Z,2.10
2022-09-15T06:28:36.073Z,1.80
2022-09-15T06:31:03.471Z,1.73
2022-09-15T06:33:30.168Z,1.83
2022-09-15T06:35:59.663Z,1.65
2022-09-15T06:38:26.346Z,1.52
2022-09-15T06:40:57.572Z,2.40
2022-09-15T06:43:24.986Z,1.67
2022-09-15T06:45:52.432Z,1.60
2022-09-15T06:48:24.720Z,1.40
2022-09-15T06:50:55.832Z,1.25
2022-09-15T06:53:22.574Z,2.05
2022-09-15T06:55:49.631Z,1.73
2022-09-15T06:58:17.059Z,1.92
2022-09-15T07:00:43.803Z,1.88
2022-09-15T07:03:11.163Z,1.80
2022-09-15T07:05:38.339Z,2.00
2022-09-15T07:08:05.003Z,1.73
2022-09-15T07:10:31.936Z,1.67
2022-09-15T07:13:01.136Z,1.90
2022-09-15T07:15:27.779Z,1.73
2022-09-15T07:17:54.671Z,1.95
2022-09-15T07:20:21.497Z,1.50
2022-09-15T07:22:49.212Z,1.90
2022-09-15T07:25:15.847Z,1.75
2022-09-15T07:27:42.490Z,1.80
2022-09-15T07:30:10.127Z,2.03
2022-09-15T07:32:37.183Z,1.42
2022-09-15T07:35:04.043Z,1.75
2022-09-15T07:37:31.295Z,1.25
2022-09-15T07:39:57.958Z,1.50
2022-09-15T07:42:25.669Z,1.50
2022-09-15T07:44:52.414Z,1.92
2022-09-15T07:47:19.034Z,1.42
2022-09-15T07:49:45.657Z,1.52
2022-09-15T07:52:12.560Z,2.03
2022-09-15T07:54:39.200Z,1.33
2022-09-15T07:57:06.387Z,1.60
2022-09-15T07:59:33.164Z,2.03
2022-09-15T08:01:59.848Z,2.42
2022-09-15T08:04:26.583Z,1.95
2022-09-15T08:06:53.249Z,1.58
2022-09-15T08:09:20.496Z,1.65
2022-09-15T08:11:47.119Z,1.60
2022-09-15T08:14:14.123Z,1.92
2022-09-15T08:16:40.732Z,1.60
2022-09-15T08:19:07.671Z,2.28
2022-09-15T08:21:34.332Z,1.50
2022-09-15T08:24:01.360Z,1.83
2022-09-15T08:26:29.411Z,1.35
2022-09-15T08:28:56.790Z,2.00
2022-09-15T08:31:26.546Z,1.27
2022-09-15T08:33:55.351Z,1.20
2022-09-15T08:36:22.624Z,1.65
2022-09-15T08:38:49.355Z,1.10
2022-09-15T08:41:22.435Z,2.03
2022-09-15T08:44:03.939Z,1.75
2022-09-15T08:46:39.635Z,1.33
2022-09-15T08:49:47.821Z,1.70
2022-09-15T08:52:23.714Z,2.15
2022-09-15T08:54:55.769Z,1.35
2022-09-15T08:57:24.690Z,2.10
2022-09-15T08:59:51.953Z,1.63
2022-09-15T09:02:38.882Z,2.65
2022-09-15T09:05:40.580Z,1.88
2022-09-15T09:08:27.866Z,2.00
2022-09-15T09:11:02.354Z,1.70
2022-09-15T09:13:56.407Z,2.17
2022-09-15T09:16:28.755Z,2.47
2022-09-15T09:19:10.366Z,1.08
2022-09-15T09:21:42.864Z,1.25
2022-09-15T09:26:41.926Z,1.15
2022-09-15T09:29:36.051Z,1.90
2022-09-15T09:32:12.618Z,1.52
2022-09-15T09:34:47.034Z,1.30
2022-09-15T09:37:17.327Z,1.20
2022-09-15T09:39:43.936Z,1.75
2022-09-15T09:42:15.831Z,1.90
2022-09-15T09:44:42.709Z,1.30
2022-09-15T09:47:09.871Z,1.00
2022-09-15T09:49:54.558Z,1.10
2022-09-15T09:52:38.544Z,1.48
2022-09-15T09:55:23.403Z,1.50
2022-09-15T09:57:50.376Z,1.30
2022-09-15T10:00:33.787Z,1.48
2022-09-15T10:03:12.663Z,1.17
2022-09-15T10:05:39.633Z,1.33
2022-09-15T10:08:06.732Z,1.40
2022-09-15T10:10:33.483Z,1.35
2022-09-15T10:13:03.117Z,1.33
2022-09-15T10:15:34.683Z,1.42
2022-09-15T10:18:01.739Z,1.37
2022-09-15T10:20:32.677Z,1.27
2022-09-15T10:23:23.471Z,1.10
2022-09-15T10:26:00.144Z,1.35
2022-09-15T10:28:27.833Z,0.95
2022-09-15T10:30:59.931Z,1.30
2022-09-15T10:33:35.456Z,1.17
2022-09-15T10:36:11.264Z,1.08
2022-09-15T10:38:47.627Z,1.33
2022-09-15T10:41:21.358Z,1.20
2022-09-15T10:44:06.793Z,1.05
2022-09-15T10:46:54.786Z,1.25
2022-09-15T10:49:52.102Z,1.15
2022-09-15T10:52:36.818Z,1.35
2022-09-15T10:55:06.547Z,1.20
2022-09-15T10:57:54.596Z,1.40
2022-09-15T11:00:26.593Z,1.20
2022-09-15T11:03:38.583Z,1.10
2022-09-15T11:06:49.433Z,1.52
2022-09-15T11:09:28.858Z,1.25
2022-09-15T11:12:29.279Z,1.20
2022-09-15T11:15:21.987Z,1.20
2022-09-15T11:18:00.084Z,1.50
2022-09-15T11:20:43.579Z,1.00
2022-09-15T11:23:17.943Z,0.90
2022-09-15T11:25:49.374Z,0.82
2022-09-15T11:28:19.216Z,1.23
2022-09-15T11:31:18.020Z,1.30
2022-09-15T11:34:11.430Z,0.98
2022-09-15T11:36:44.879Z,1.20
2022-09-15T11:39:58.609Z,1.90
2022-09-15T11:42:42.167Z,1.02
2022-09-15T11:45:18.259Z,0.82
2022-09-15T11:47:55.904Z,0.98
2022-09-15T11:50:29.958Z,1.20
2022-09-15T11:53:17.092Z,0.90
2022-09-15T11:55:47.655Z,0.80
2022-09-15T11:58:49.298Z,0.88
2022-09-15T12:01:20.107Z,1.25
2022-09-15T12:04:03.995Z,1.23
2022-09-15T12:06:34.728Z,1.13
2022-09-15T12:09:03.796Z,1.20
2022-09-15T12:11:35.107Z,1.20
2022-09-15T12:14:04.832Z,1.25
2022-09-15T12:16:33.800Z,0.90
2022-09-15T12:19:04.052Z,1.17
2022-09-15T12:21:52.833Z,1.27
2022-09-15T12:24:50.679Z,1.35
2022-09-15T12:27:19.433Z,1.25
2022-09-15T12:29:51.668Z,1.17
2022-09-15T12:32:33.178Z,1.63
2022-09-15T12:35:04.948Z,1.00
2022-09-15T12:37:37.413Z,1.17
2022-09-15T12:42:35.286Z,1.35
2022-09-15T12:45:24.205Z,1.13
2022-09-15T12:47:54.572Z,1.45
2022-09-15T12:50:37.867Z,1.20
2022-09-15T12:53:20.708Z,1.33
2022-09-15T12:56:02.348Z,1.23
2022-09-15T12:58:40.525Z,1.85
2022-09-15T13:01:19.609Z,1.40
2022-09-15T13:03:47.214Z,1.00
2022-09-15T13:06:19.134Z,1.17
2022-09-15T13:08:52.775Z,1.20
2022-09-15T13:11:37.115Z,1.30
2022-09-15T13:14:03.939Z,1.17
2022-09-15T13:16:48.519Z,1.40
2022-09-15T13:19:35.692Z,1.55
2022-09-15T13:22:05.408Z,1.38
2022-09-15T13:25:10.627Z,0.95
2022-09-15T13:27:37.287Z,1.10
2022-09-15T13:30:09.919Z,1.38
2022-09-15T13:32:53.454Z,1.48
2022-09-15T13:35:52.194Z,1.30
2022-09-15T13:38:48.422Z,1.42
2022-09-15T13:41:20.715Z,1.30
2022-09-15T13:44:09.969Z,1.35
2022-09-15T13:46:45.745Z,1.30
2022-09-15T13:49:21.034Z,1.63
2022-09-15T13:51:58.364Z,1.05
2022-09-15T13:54:25.094Z,1.60
2022-09-15T13:56:55.071Z,1.63
2022-09-15T13:59:27.252Z,1.25
2022-09-15T14:04:31.357Z,1.23
2022-09-15T14:07:01.374Z,1.27
2022-09-15T14:09:35.169Z,1.08
2022-09-15T14:12:11.939Z,1.10
2022-09-15T14:14:40.879Z,0.82
2022-09-15T14:17:25.975Z,1.02
2022-09-15T14:19:55.408Z,1.40
2022-09-15T14:22:31.450Z,1.98
2022-09-15T14:25:00.277Z,1.60
2022-09-15T14:27:33.656Z,1.63
2022-09-15T14:30:10.544Z,1.50
2022-09-15T14:32:43.027Z,2.13
2022-09-15T14:35:19.680Z,1.98
2022-09-15T14:37:53.851Z,0.93
2022-09-15T14:40:28.011Z,1.40
2022-09-15T14:42:55.329Z,1.35
2022-09-15T14:48:16.628Z,1.40
2022-09-15T14:51:08.818Z,1.23
2022-09-15T14:53:39.658Z,1.20
2022-09-15T14:56:17.445Z,1.70
2022-09-15T14:58:52.304Z,1.42
2022-09-15T15:01:46.205Z,1.45
2022-09-15T15:04:28.714Z,1.55
2022-09-15T15:07:19.684Z,1.40
2022-09-15T15:09:50.303Z,1.25
2022-09-15T15:12:27.378Z,1.45
2022-09-15T15:14:55.972Z,1.35
2022-09-15T15:17:37.733Z,1.63
2022-09-15T15:20:10.296Z,1.30
2022-09-15T15:25:20.784Z,1.02
2022-09-15T15:27:57.915Z,1.10
2022-09-15T15:30:30.823Z,1.60
2022-09-15T15:33:20.944Z,1.17
2022-09-15T15:35:59.860Z,1.35
2022-09-15T15:38:26.980Z,1.13
2022-09-15T15:41:07.940Z,1.40
2022-09-15T15:43:35.359Z,1.40
2022-09-15T15:46:04.966Z,1.05
2022-09-15T15:48:37.764Z,1.67
2022-09-15T15:51:07.354Z,0.88
2022-09-15T15:53:34.325Z,1.40
2022-09-15T15:56:01.111Z,1.00
2022-09-15T15:58:28.040Z,1.00
2022-09-15T16:00:56.686Z,0.82
2022-09-15T16:03:24.828Z,1.20
2022-09-15T16:05:54.447Z,1.55
2022-09-15T16:08:33.218Z,1.23
2022-09-15T16:11:02.990Z,0.93
2022-09-15T16:13:31.573Z,1.20
2022-09-15T16:16:00.903Z,1.35
2022-09-15T16:18:28.954Z,1.35
2022-09-15T16:20:55.572Z,1.15
2022-09-15T16:23:23.571Z,1.65
2022-09-15T16:25:59.107Z,1.38
2022-09-15T16:28:26.099Z,1.83
2022-09-15T16:30:52.730Z,1.00
2022-09-15T16:33:19.688Z,1.05
2022-09-15T16:35:51.109Z,1.35
2022-09-15T16:38:19.953Z,1.08
2022-09-15T16:40:49.578Z,1.08
2022-09-15T16:43:18.919Z,1.27
2022-09-15T16:45:45.755Z,1.63
2022-09-15T16:48:12.799Z,1.30
2022-09-15T16:50:50.318Z,1.55
2022-09-15T16:53:22.936Z,1.30
2022-09-15T16:55:51.303Z,1.08
2022-09-15T16:58:19.871Z,1.05
2022-09-15T17:00:48.361Z,1.33
2022-09-15T17:03:17.619Z,1.33
2022-09-15T17:05:50.046Z,0.90
2022-09-15T17:08:19.134Z,1.20
2022-09-15T17:10:48.958Z,1.58
2022-09-15T17:13:18.534Z,0.98
2022-09-15T17:15:46.255Z,1.30
2022-09-15T17:18:15.246Z,1.17
2022-09-15T17:20:46.186Z,1.38
2022-09-15T17:23:26.134Z,1.70
2022-09-15T17:25:57.243Z,1.80
2022-09-15T17:28:26.767Z,1.85
2022-09-15T17:31:00.459Z,1.23
2022-09-15T17:33:28.515Z,1.33
2022-09-15T17:35:55.529Z,1.10
2022-09-15T17:38:22.350Z,1.10
2022-09-15T17:40:50.494Z,1.30
2022-09-15T17:43:22.644Z,1.45
2022-09-15T17:45:50.169Z,1.23
2022-09-15T17:48:17.250Z,1.60
2022-09-15T17:50:45.221Z,1.40
2022-09-15T17:53:17.195Z,1.48
2022-09-15T17:55:44.093Z,1.80
2022-09-15T17:58:10.874Z,1.00
2022-09-15T18:00:40.251Z,1.20
2022-09-15T18:03:27.687Z,1.40
2022-09-15T18:05:58.967Z,1.00
2022-09-15T18:08:26.562Z,1.05
2022-09-15T18:10:53.388Z,0.82
2022-09-15T18:13:27.107Z,0.90
2022-09-15T18:15:54.703Z,1.17
2022-09-15T18:18:23.877Z,1.05
2022-09-15T18:20:52.897Z,1.20
2022-09-15T18:23:24.858Z,0.95
2022-09-15T18:25:52.098Z,1.25
2022-09-15T18:28:19.883Z,1.00
2022-09-15T18:30:49.326Z,1.50
2022-09-15T18:33:21.227Z,1.27
2022-09-15T18:35:49.532Z,0.98
2022-09-15T18:38:16.614Z,0.75
2022-09-15T18:40:53.214Z,1.40
2022-09-15T18:43:21.431Z,1.23
2022-09-15T18:45:48.300Z,1.30
2022-09-15T18:48:15.587Z,1.42
2022-09-15T18:50:44.212Z,1.20
2022-09-15T18:53:11.211Z,1.30
2022-09-15T18:55:41.795Z,1.48
2022-09-15T18:58:09.127Z,1.50
2022-09-15T19:00:35.793Z,1.50
2022-09-15T19:03:04.088Z,1.50
2022-09-15T19:05:32.154Z,1.35
2022-09-15T19:07:58.937Z,1.52
2022-09-15T19:10:26.768Z,1.70
2022-09-15T19:12:53.860Z,1.40
2022-09-15T19:15:23.692Z,1.27
2022-09-15T19:17:50.627Z,1.75
2022-09-15T19:20:17.894Z,1.40
2022-09-15T19:22:44.672Z,1.80
2022-09-15T19:25:12.102Z,1.55
2022-09-15T19:27:39.707Z,1.23
2022-09-15T19:30:08.202Z,1.67
2022-09-15T19:32:34.840Z,1.40
2022-09-15T19:35:01.483Z,1.52
2022-09-15T19:37:28.531Z,1.60
2022-09-15T19:39:55.686Z,1.38
2022-09-15T19:42:22.431Z,1.55
2022-09-15T19:44:49.467Z,2.03
2022-09-15T19:47:16.412Z,1.40
2022-09-15T19:49:43.110Z,1.55
2022-09-15T19:52:09.744Z,1.50
2022-09-15T19:54:36.572Z,1.83
2022-09-15T19:57:03.721Z,1.38
2022-09-15T19:59:31.854Z,1.50
2022-09-15T20:02:00.099Z,1.48
2022-09-15T20:04:27.886Z,1.30
2022-09-15T20:06:54.519Z,1.58
2022-09-15T20:09:21.171Z,1.65
2022-09-15T20:11:47.970Z,1.60
2022-09-15T20:14:15.122Z,2.22
2022-09-15T20:16:41.875Z,1.45
2022-09-15T20:19:08.607Z,1.27
2022-09-15T20:21:53.238Z,1.30
2022-09-15T20:24:21.613Z,1.13
2022-09-15T20:26:48.697Z,1.30
2022-09-15T20:29:15.966Z,1.35
2022-09-15T20:31:42.653Z,1.65
2022-09-15T20:34:09.363Z,1.50
2022-09-15T20:36:38.660Z,1.30
2022-09-15T20:39:10.362Z,1.35
2022-09-15T20:41:37.669Z,1.30
2022-09-15T20:44:05.890Z,1.60
2022-09-15T20:46:33.405Z,1.20
2022-09-15T20:49:00.443Z,1.98
2022-09-15T20:51:31.467Z,1.45
2022-09-15T20:54:00.488Z,1.20
2022-09-15T20:56:29.156Z,1.50
2022-09-15T20:58:58.314Z,1.67
2022-09-15T21:01:27.871Z,1.45
2022-09-15T21:03:55.343Z,1.80
2022-09-15T21:06:24.226Z,2.03
2022-09-15T21:08:52.414Z,1.55
2022-09-15T21:11:21.100Z,2.25
2022-09-15T21:13:49.216Z,1.70
2022-09-15T21:16:18.645Z,2.15
2022-09-15T21:18:46.465Z,2.58
2022-09-15T21:21:22.871Z,1.70
2022-09-15T21:23:52.290Z,2.33
2022-09-15T21:26:21.600Z,2.13
2022-09-15T21:28:48.682Z,2.28
2022-09-15T21:31:17.745Z,1.70
2022-09-15T21:33:45.599Z,1.88
2022-09-15T21:36:14.984Z,2.55
2022-09-15T21:38:43.923Z,2.03
2022-09-15T21:41:15.575Z,2.05
2022-09-15T21:43:44.467Z,1.80
2022-09-15T21:46:13.598Z,1.80
2022-09-15T21:48:41.000Z,2.42
2022-09-15T21:51:08.899Z,2.22
2022-09-15T21:53:35.623Z,1.75
2022-09-15T21:56:08.391Z,2.47
2022-09-15T21:58:42.441Z,1.75
2022-09-15T22:01:17.157Z,2.05
2022-09-15T22:03:49.222Z,1.75
2022-09-15T22:06:16.770Z,2.03
2022-09-15T22:08:44.440Z,1.95
2022-09-15T22:11:11.490Z,1.65
2022-09-15T22:13:43.473Z,1.63
2022-09-15T22:16:28.790Z,1.83
2022-09-15T22:18:56.327Z,1.58
2022-09-15T22:21:26.209Z,1.73
2022-09-15T22:23:56.096Z,1.27
2022-09-15T22:26:26.667Z,1.35
2022-09-15T22:28:54.210Z,1.70
2022-09-15T22:31:22.024Z,1.58
2022-09-15T22:33:49.246Z,1.55
2022-09-15T22:36:25.143Z,1.50
2022-09-15T22:38:55.583Z,1.67
2022-09-15T22:41:25.651Z,1.70
2022-09-15T22:43:52.376Z,2.10
2022-09-15T22:46:19.846Z,1.80
2022-09-15T22:48:47.064Z,1.60
2022-09-15T22:51:14.771Z,1.27
2022-09-15T22:53:42.260Z,1.50
2022-09-15T22:56:13.964Z,1.45
2022-09-15T22:58:46.308Z,1.40
2022-09-15T23:01:18.050Z,1.65
2022-09-15T23:03:47.509Z,1.70
2022-09-15T23:06:14.412Z,1.80
2022-09-15T23:08:41.215Z,1.67
2022-09-15T23:11:13.150Z,1.67
2022-09-15T23:13:41.044Z,1.77
2022-09-15T23:16:08.919Z,1.42
2022-09-15T23:18:36.385Z,1.98
2022-09-15T23:21:09.305Z,2.17
2022-09-15T23:23:38.480Z,1.45
2022-09-15T23:26:10.681Z,1.30
2022-09-15T23:28:39.022Z,1.80
2022-09-15T23:31:07.169Z,2.22
2022-09-15T23:33:34.501Z,1.80
2022-09-15T23:36:06.919Z,1.90
2022-09-15T23:38:38.480Z,2.17
2022-09-15T23:41:05.897Z,1.67
2022-09-15T23:43:33.229Z,1.95
2022-09-15T23:46:00.953Z,2.03
2022-09-15T23:48:28.022Z,1.50
2022-09-15T23:50:54.893Z,2.08
2022-09-15T23:53:21.576Z,2.00
2022-09-15T23:55:48.293Z,1.70
2022-09-15T23:58:15.006Z,1.70
